ESSB/BMA METAR and TAF weather

Enter ICAO airport designator
Station Type Date Time Source
ESSB METAR 2021/09/24 00:20 UTC NOAA

ESSB 240020Z AUTO 31015KT 5000 BR VV015 08/07 Q0987


Station Type Date Time Source
ESSB Decoded METAR 2021/09/24 00:20 UTC NOAA

Stockholm / Bromma, Sweden (ESSB) 59-21N 017-57E 14M
Sep 23, 2021 - 08:20 PM EDT / 2021.09.24 0020 UTC
Wind: from the NW (310 degrees) at 17 MPH (15 KT):0
Visibility: 3 mile(s):0
Sky conditions: obscured
Weather: mist
Temperature: 46 F (8 C)
Dew Point: 44 F (7 C)
Relative Humidity: 93%
Pressure (altimeter): 29.15 in. Hg (0987 hPa)
ob: ESSB 240020Z AUTO 31015KT 5000 BR VV015 08/07 Q0987
cycle: 0

Station Type Date Time Source
ESSB TAF 2017/03/27 06:35 UTC NOAA

TAF ESSB 270530Z 2706/2724 27008KT CAVOK
BECMG 2710/2713 29015G25KT

Example: see airport list